createdAt,value
2022-10-14T00:00:30.204Z,95.20
2022-10-14T00:05:58.086Z,95.30
2022-10-14T00:11:29.826Z,95.40
2022-10-14T00:16:57.635Z,95.40
2022-10-14T00:22:26.214Z,95.40
2022-10-14T00:27:54.561Z,95.50
2022-10-14T00:33:23.093Z,95.40
2022-10-14T00:38:53.223Z,95.50
2022-10-14T00:44:21.007Z,95.50
2022-10-14T00:49:48.882Z,95.60
2022-10-14T00:55:19.174Z,95.60
2022-10-14T01:00:47.031Z,95.70
2022-10-14T01:06:49.140Z,95.70
2022-10-14T01:13:01.872Z,95.70
2022-10-14T01:18:33.837Z,95.70
2022-10-14T01:24:33.434Z,95.90
2022-10-14T01:30:07.126Z,95.90
2022-10-14T01:35:48.434Z,96.00
2022-10-14T01:41:35.209Z,96.10
2022-10-14T01:47:04.748Z,96.10
2022-10-14T01:52:39.651Z,96.20
2022-10-14T01:58:09.458Z,96.20
2022-10-14T02:03:47.096Z,96.50
2022-10-14T02:09:28.000Z,96.30
2022-10-14T02:15:22.168Z,96.40
2022-10-14T02:21:36.755Z,96.50
2022-10-14T02:27:10.254Z,96.90
2022-10-14T02:32:40.522Z,96.70
2022-10-14T02:38:09.128Z,96.80
2022-10-14T02:43:37.109Z,96.90
2022-10-14T02:49:07.115Z,96.90
2022-10-14T02:54:34.992Z,97.00
2022-10-14T03:00:06.504Z,97.10
2022-10-14T03:05:36.241Z,97.20
2022-10-14T03:11:09.929Z,97.20
2022-10-14T03:16:38.683Z,97.30
2022-10-14T03:22:07.859Z,97.30
2022-10-14T03:27:38.036Z,97.40
2022-10-14T03:33:14.339Z,97.40
2022-10-14T03:38:48.604Z,97.40
2022-10-14T03:44:33.032Z,97.40
2022-10-14T03:50:19.474Z,97.50
2022-10-14T03:55:51.402Z,97.50
2022-10-14T04:01:19.572Z,97.50
2022-10-14T04:07:13.519Z,97.60
2022-10-14T04:12:48.458Z,97.60
2022-10-14T04:18:23.192Z,97.70
2022-10-14T04:23:54.506Z,97.70
2022-10-14T04:29:34.671Z,97.70
2022-10-14T04:35:09.682Z,97.80
2022-10-14T04:40:45.538Z,97.80
2022-10-14T04:46:14.158Z,97.90
2022-10-14T04:51:43.064Z,97.90
2022-10-14T04:57:22.660Z,97.90
2022-10-14T05:02:50.566Z,97.90
2022-10-14T05:08:20.797Z,98.00
2022-10-14T05:13:52.853Z,98.00
2022-10-14T05:19:23.220Z,98.00
2022-10-14T05:24:53.239Z,98.10
2022-10-14T05:30:21.772Z,98.00
2022-10-14T05:35:59.202Z,98.10
2022-10-14T05:41:30.064Z,98.10
2022-10-14T05:46:57.957Z,98.00
2022-10-14T05:52:33.478Z,98.20
2022-10-14T05:58:05.166Z,98.20
2022-10-14T06:03:37.963Z,98.20
2022-10-14T06:09:11.029Z,98.10
2022-10-14T06:14:39.276Z,98.10
2022-10-14T06:20:08.000Z,98.10
2022-10-14T06:25:36.927Z,98.10
2022-10-14T06:31:05.759Z,98.10
2022-10-14T06:36:34.162Z,98.00
2022-10-14T06:42:03.535Z,98.00
2022-10-14T06:47:32.758Z,98.00
2022-10-14T06:53:00.644Z,97.90
2022-10-14T06:58:29.197Z,97.90
2022-10-14T07:03:57.024Z,97.90
2022-10-14T07:09:25.190Z,97.90
2022-10-14T07:14:53.463Z,97.80
2022-10-14T07:20:21.177Z,97.80
2022-10-14T07:25:48.912Z,97.90
2022-10-14T07:31:16.814Z,97.90
2022-10-14T07:36:44.691Z,97.80
2022-10-14T07:42:12.428Z,97.60
2022-10-14T07:47:40.226Z,97.60
2022-10-14T07:53:07.955Z,97.50
2022-10-14T07:58:35.841Z,97.60
2022-10-14T08:04:04.373Z,97.70
2022-10-14T08:09:35.429Z,97.60
2022-10-14T08:15:03.774Z,97.40
2022-10-14T08:20:32.661Z,97.50
2022-10-14T08:26:00.519Z,97.40
2022-10-14T08:31:28.965Z,97.10
2022-10-14T08:36:56.743Z,97.00
2022-10-14T08:42:49.695Z,96.90
2022-10-14T08:48:25.199Z,96.80
2022-10-14T08:54:00.219Z,96.60
2022-10-14T08:59:28.197Z,96.70
2022-10-14T09:04:59.300Z,95.80
2022-10-14T09:10:31.862Z,95.70
2022-10-14T09:16:34.636Z,95.50
2022-10-14T09:22:02.784Z,95.20
2022-10-14T09:27:30.679Z,94.70
2022-10-14T09:32:59.939Z,94.50
2022-10-14T09:38:28.160Z,94.40
2022-10-14T09:44:18.597Z,94.20
2022-10-14T09:49:48.643Z,93.80
2022-10-14T09:55:21.583Z,93.50
2022-10-14T10:00:57.891Z,93.30
2022-10-14T10:06:27.153Z,92.90
2022-10-14T10:11:55.950Z,92.80
2022-10-14T10:17:24.126Z,92.70
2022-10-14T10:22:52.419Z,92.40
2022-10-14T10:28:32.451Z,92.20
2022-10-14T10:34:53.150Z,92.00
2022-10-14T10:40:29.662Z,91.90
2022-10-14T10:47:13.398Z,91.50
2022-10-14T10:53:04.192Z,91.30
2022-10-14T10:59:03.392Z,90.70
2022-10-14T11:04:56.172Z,90.20
2022-10-14T11:11:20.268Z,89.10
2022-10-14T11:17:46.812Z,88.40
2022-10-14T11:23:49.254Z,88.00
2022-10-14T11:29:47.856Z,86.90
2022-10-14T11:41:47.654Z,85.90
2022-10-14T11:47:34.639Z,85.20
2022-10-14T11:53:31.016Z,84.30
2022-10-14T11:59:49.368Z,84.00
2022-10-14T12:06:03.026Z,83.50
2022-10-14T12:11:50.793Z,82.90
2022-10-14T12:17:34.805Z,82.70
2022-10-14T12:23:06.355Z,82.50
2022-10-14T12:28:37.791Z,82.00
2022-10-14T12:34:11.647Z,81.80
2022-10-14T12:39:42.667Z,81.40
2022-10-14T12:45:21.995Z,81.50
2022-10-14T12:51:13.251Z,81.30
2022-10-14T12:56:57.974Z,81.00
2022-10-14T13:02:38.619Z,80.60
2022-10-14T13:08:19.651Z,80.60
2022-10-14T13:13:49.458Z,80.00
2022-10-14T13:19:36.494Z,79.50
2022-10-14T13:25:18.366Z,79.30
2022-10-14T13:31:25.781Z,78.60
2022-10-14T13:37:06.079Z,78.60
2022-10-14T13:42:36.868Z,78.60
2022-10-14T13:48:06.309Z,78.80
2022-10-14T13:53:34.459Z,78.60
2022-10-14T13:59:39.266Z,78.60
2022-10-14T14:05:15.165Z,78.60
2022-10-14T14:11:18.887Z,78.60
2022-10-14T14:16:57.783Z,78.70
2022-10-14T14:22:28.959Z,78.90
2022-10-14T14:28:01.694Z,79.20
2022-10-14T14:33:33.046Z,80.30
2022-10-14T14:39:03.032Z,81.30
2022-10-14T14:44:34.162Z,82.10
2022-10-14T14:50:29.995Z,82.70
2022-10-14T14:55:54.117Z,83.10
2022-10-14T15:01:26.407Z,83.60
2022-10-14T15:07:21.591Z,83.90
2022-10-14T15:12:56.227Z,84.20
2022-10-14T15:18:28.624Z,84.60
2022-10-14T15:23:58.417Z,85.00
2022-10-14T15:29:26.299Z,85.30
2022-10-14T15:35:01.223Z,85.70
2022-10-14T15:40:32.899Z,86.00
2022-10-14T15:46:19.643Z,86.30
2022-10-14T15:51:47.705Z,86.50
2022-10-14T15:57:17.678Z,86.80
2022-10-14T16:02:58.591Z,87.10
2022-10-14T16:08:26.917Z,87.30
2022-10-14T16:13:55.132Z,87.60
2022-10-14T16:19:23.033Z,87.80
2022-10-14T16:24:50.837Z,88.10
2022-10-14T16:30:18.726Z,88.30
2022-10-14T16:35:51.917Z,88.70
2022-10-14T16:41:19.709Z,88.80
2022-10-14T16:47:06.394Z,88.90
2022-10-14T16:52:55.154Z,89.10
2022-10-14T16:58:22.996Z,89.30
2022-10-14T17:03:50.852Z,89.40
2022-10-14T17:09:19.418Z,89.50
2022-10-14T17:14:47.273Z,89.60
2022-10-14T17:20:15.308Z,89.70
2022-10-14T17:25:46.269Z,89.90
2022-10-14T17:31:19.068Z,90.00
2022-10-14T17:36:47.063Z,90.10
2022-10-14T17:42:15.784Z,90.10
2022-10-14T17:47:43.982Z,90.20
2022-10-14T17:53:12.704Z,90.30
2022-10-14T17:58:41.233Z,90.30
2022-10-14T18:04:09.075Z,90.40
2022-10-14T18:09:36.877Z,90.40
2022-10-14T18:15:05.277Z,90.50
2022-10-14T18:20:36.420Z,90.60
2022-10-14T18:26:09.539Z,90.60
2022-10-14T18:31:40.493Z,90.70
2022-10-14T18:37:09.844Z,90.70
2022-10-14T18:42:37.885Z,90.70
2022-10-14T18:48:06.009Z,90.80
2022-10-14T18:53:34.302Z,90.80
2022-10-14T18:59:15.259Z,90.80
2022-10-14T19:04:43.281Z,90.90
2022-10-14T19:10:11.198Z,90.90
2022-10-14T19:15:45.339Z,91.00
2022-10-14T19:21:19.233Z,91.00
2022-10-14T19:26:47.702Z,91.00
2022-10-14T19:32:15.486Z,91.10
2022-10-14T19:37:43.205Z,91.10
2022-10-14T19:43:11.088Z,91.20
2022-10-14T19:48:39.706Z,91.30
2022-10-14T19:54:07.980Z,91.30
2022-10-14T19:59:35.948Z,91.40
2022-10-14T20:05:04.025Z,91.40
2022-10-14T20:10:31.962Z,91.50
2022-10-14T20:16:02.303Z,91.50
2022-10-14T20:21:31.726Z,91.50
2022-10-14T20:26:59.885Z,91.60
2022-10-14T20:32:27.654Z,91.60
2022-10-14T20:37:55.661Z,91.60
2022-10-14T20:43:23.830Z,91.70
2022-10-14T20:48:57.112Z,91.70
2022-10-14T20:54:30.567Z,91.70
2022-10-14T20:59:59.741Z,91.70
2022-10-14T21:05:46.718Z,91.70
2022-10-14T21:11:18.783Z,91.80
2022-10-14T21:16:47.492Z,91.90
2022-10-14T21:22:15.807Z,91.80
2022-10-14T21:27:43.991Z,91.90
2022-10-14T21:33:11.855Z,92.00
2022-10-14T21:38:40.803Z,92.00
2022-10-14T21:44:11.475Z,92.10
2022-10-14T21:49:39.436Z,92.10
2022-10-14T21:55:08.089Z,92.10
2022-10-14T22:00:35.950Z,92.20
2022-10-14T22:06:10.576Z,92.20
2022-10-14T22:11:41.021Z,92.30
2022-10-14T22:17:09.068Z,92.20
2022-10-14T22:22:36.884Z,92.20
2022-10-14T22:28:06.110Z,92.30
2022-10-14T22:33:38.716Z,92.30
2022-10-14T22:39:11.246Z,92.30
2022-10-14T22:44:39.049Z,92.40
2022-10-14T22:50:07.538Z,92.70
2022-10-14T22:55:35.309Z,92.50
2022-10-14T23:01:15.528Z,92.50
2022-10-14T23:06:46.752Z,92.60
2022-10-14T23:12:14.547Z,92.60
2022-10-14T23:17:42.334Z,92.70
2022-10-14T23:23:10.044Z,92.80
2022-10-14T23:28:38.590Z,92.80
2022-10-14T23:34:12.050Z,92.90
2022-10-14T23:39:39.849Z,92.90
2022-10-14T23:45:08.845Z,93.00
2022-10-14T23:50:36.606Z,93.10
2022-10-14T23:56:05.917Z,93.10
